createdAt,value
2022-11-06T00:02:20.941Z,94544.50
2022-11-06T00:04:48.360Z,94534.47
2022-11-06T00:07:14.979Z,94540.41
2022-11-06T00:09:41.623Z,94543.59
2022-11-06T00:12:08.387Z,94534.28
2022-11-06T00:14:35.422Z,94534.66
2022-11-06T00:17:02.168Z,94524.41
2022-11-06T00:19:28.793Z,94534.56
2022-11-06T00:21:55.405Z,94526.66
2022-11-06T00:24:22.082Z,94537.34
2022-11-06T00:26:54.234Z,94515.47
2022-11-06T00:29:21.284Z,94513.34
2022-11-06T00:31:50.083Z,94530.63
2022-11-06T00:34:16.866Z,94533.16
2022-11-06T00:36:43.929Z,94518.03
2022-11-06T00:39:11.813Z,94526.06
2022-11-06T00:41:38.792Z,94515.09
2022-11-06T00:44:05.621Z,94519.31
2022-11-06T00:46:32.880Z,94534.25
2022-11-06T00:48:59.497Z,94530.88
2022-11-06T00:51:32.345Z,94523.97
2022-11-06T00:54:00.796Z,94521.53
2022-11-06T00:56:28.121Z,94525.31
2022-11-06T00:58:59.109Z,94509.69
2022-11-06T01:01:30.836Z,94510.44
2022-11-06T01:04:10.987Z,94520.22
2022-11-06T01:06:40.642Z,94512.09
2022-11-06T01:09:08.632Z,94498.22
2022-11-06T01:12:06.685Z,94514.38
2022-11-06T01:14:26.447Z,94525.47
2022-11-06T01:16:53.080Z,94523.00
2022-11-06T01:19:21.454Z,94504.91
2022-11-06T01:21:50.550Z,94516.06
2022-11-06T01:24:21.520Z,94507.88
2022-11-06T01:27:05.267Z,94509.84
2022-11-06T01:29:36.169Z,94510.03
2022-11-06T01:32:02.831Z,94493.13
2022-11-06T01:34:29.803Z,94508.38
2022-11-06T01:36:56.459Z,94499.06
2022-11-06T01:39:23.128Z,94504.22
2022-11-06T01:41:52.561Z,94518.19
2022-11-06T01:44:40.894Z,94498.47
2022-11-06T01:47:24.613Z,94492.59
2022-11-06T01:49:55.454Z,94520.56
2022-11-06T01:52:23.836Z,94504.88
2022-11-06T01:54:59.673Z,94508.97
2022-11-06T01:57:26.403Z,94485.72
2022-11-06T01:59:55.025Z,94508.75
2022-11-06T02:02:22.482Z,94507.06
2022-11-06T02:04:50.145Z,94494.13
2022-11-06T02:07:19.038Z,94500.25
2022-11-06T02:09:46.260Z,94496.47
2022-11-06T02:12:36.943Z,94502.97
2022-11-06T02:15:25.599Z,94503.81
2022-11-06T02:18:07.158Z,94496.28
2022-11-06T02:20:41.871Z,94496.84
2022-11-06T02:23:57.832Z,94495.63
2022-11-06T02:26:35.713Z,94488.97
2022-11-06T02:29:15.408Z,94485.75
2022-11-06T02:31:45.402Z,94483.66
2022-11-06T02:34:15.723Z,94481.91
2022-11-06T02:37:00.358Z,94483.59
2022-11-06T02:39:29.356Z,94491.63
2022-11-06T02:41:58.687Z,94447.00
2022-11-06T02:44:28.047Z,94490.41
2022-11-06T02:47:00.026Z,94491.56
2022-11-06T02:49:33.125Z,94488.00
2022-11-06T02:52:06.843Z,94489.25
2022-11-06T02:54:39.049Z,94500.66
2022-11-06T02:57:08.189Z,94503.91
2022-11-06T02:59:47.742Z,94493.19
2022-11-06T03:02:25.476Z,94511.50
2022-11-06T03:04:59.517Z,94506.19
2022-11-06T03:07:38.059Z,94505.69
2022-11-06T03:10:06.929Z,94507.47
2022-11-06T03:13:08.016Z,94516.47
2022-11-06T03:16:04.887Z,94511.22
2022-11-06T03:18:43.531Z,94512.38
2022-11-06T03:21:24.404Z,94523.66
2022-11-06T03:23:57.233Z,94526.38
2022-11-06T03:26:33.516Z,94526.84
2022-11-06T03:29:23.680Z,94521.94
2022-11-06T03:32:01.935Z,94526.66
2022-11-06T03:34:59.638Z,94528.81
2022-11-06T03:37:35.980Z,94529.91
2022-11-06T03:40:06.304Z,94536.13
2022-11-06T03:42:33.247Z,94537.94
2022-11-06T03:45:06.579Z,94537.81
2022-11-06T03:47:49.090Z,94547.28
2022-11-06T03:50:24.097Z,94524.47
2022-11-06T03:53:00.863Z,94535.84
2022-11-06T03:55:36.446Z,94519.69
2022-11-06T03:58:11.414Z,94530.66
2022-11-06T04:00:41.940Z,94530.66
2022-11-06T04:03:21.175Z,94529.66
2022-11-06T04:05:56.725Z,94529.75
2022-11-06T04:08:45.363Z,94537.44
2022-11-06T04:11:36.664Z,94523.66
2022-11-06T04:14:07.251Z,94541.31
2022-11-06T04:16:41.245Z,94534.72
2022-11-06T04:19:25.920Z,94545.16
2022-11-06T04:22:10.643Z,94539.53
2022-11-06T04:25:05.357Z,94541.25
2022-11-06T04:27:34.996Z,94539.81
2022-11-06T04:30:14.657Z,94538.56
2022-11-06T04:33:00.044Z,94538.41
2022-11-06T04:35:42.546Z,94531.50
2022-11-06T04:38:27.537Z,94529.63
2022-11-06T04:41:35.162Z,94530.84
2022-11-06T04:44:07.853Z,94536.19
2022-11-06T04:46:40.897Z,94538.22
2022-11-06T04:49:09.043Z,94538.78
2022-11-06T04:51:39.377Z,94536.59
2022-11-06T04:54:09.207Z,94528.41
2022-11-06T04:56:40.142Z,94544.19
2022-11-06T04:59:15.717Z,94545.13
2022-11-06T05:01:42.462Z,94558.56
2022-11-06T05:04:10.821Z,94557.28
2022-11-06T05:06:37.643Z,94559.28
2022-11-06T05:09:04.462Z,94566.75
2022-11-06T05:11:31.271Z,94575.22
2022-11-06T05:13:57.985Z,94557.06
2022-11-06T05:16:24.699Z,94568.81
2022-11-06T05:18:51.487Z,94568.53
2022-11-06T05:21:36.652Z,94566.97
2022-11-06T05:24:03.769Z,94572.50
2022-11-06T05:26:30.739Z,94576.53
2022-11-06T05:28:57.758Z,94588.59
2022-11-06T05:31:25.279Z,94594.94
2022-11-06T05:33:51.858Z,94582.00
2022-11-06T05:36:18.602Z,94591.94
2022-11-06T05:38:45.213Z,94602.47
2022-11-06T05:41:12.392Z,94606.63
2022-11-06T05:43:39.473Z,94585.47
2022-11-06T05:46:14.959Z,94596.88
2022-11-06T05:48:50.909Z,94605.81
2022-11-06T05:51:17.966Z,94606.09
2022-11-06T05:53:44.661Z,94605.88
2022-11-06T05:56:11.580Z,94621.72
2022-11-06T05:58:38.163Z,94613.63
2022-11-06T06:01:05.298Z,94628.16
2022-11-06T06:03:32.139Z,94616.53
2022-11-06T06:05:58.894Z,94632.63
2022-11-06T06:08:25.693Z,94630.91
2022-11-06T06:10:52.314Z,94639.38
2022-11-06T06:13:19.122Z,94632.69
2022-11-06T06:15:46.348Z,94643.56
2022-11-06T06:18:13.568Z,94636.47
2022-11-06T06:20:40.582Z,94629.16
2022-11-06T06:23:09.562Z,94648.47
2022-11-06T06:25:36.593Z,94651.50
2022-11-06T06:28:03.532Z,94619.63
2022-11-06T06:30:30.782Z,94646.50
2022-11-06T06:32:57.381Z,94650.31
2022-11-06T06:35:23.989Z,94647.78
2022-11-06T06:37:52.791Z,94656.97
2022-11-06T06:40:20.080Z,94657.00
2022-11-06T06:42:46.723Z,94656.06
2022-11-06T06:45:13.601Z,94645.59
2022-11-06T06:47:40.336Z,94658.66
2022-11-06T06:55:59.489Z,94682.63
2022-11-06T06:58:27.257Z,94672.19
2022-11-06T07:00:54.088Z,94679.94
2022-11-06T07:03:21.040Z,94686.97
2022-11-06T07:05:47.704Z,94669.28
2022-11-06T07:08:14.628Z,94685.31
2022-11-06T07:10:41.798Z,94687.66
2022-11-06T07:13:08.428Z,94685.69
2022-11-06T07:15:35.436Z,94699.63
2022-11-06T07:18:03.583Z,94683.50
2022-11-06T07:20:30.724Z,94693.41
2022-11-06T07:22:58.328Z,94681.78
2022-11-06T07:25:26.011Z,94696.22
2022-11-06T07:27:53.017Z,94699.47
2022-11-06T07:30:19.839Z,94700.84
2022-11-06T07:32:46.554Z,94702.59
2022-11-06T07:35:13.259Z,94699.88
2022-11-06T07:37:39.879Z,94685.91
2022-11-06T07:40:07.625Z,94707.66
2022-11-06T07:42:38.257Z,94703.13
2022-11-06T07:45:08.420Z,94713.66
2022-11-06T07:47:35.572Z,94698.94
2022-11-06T07:50:02.465Z,94700.78
2022-11-06T07:52:29.063Z,94695.97
2022-11-06T07:54:56.186Z,94721.78
2022-11-06T07:57:22.997Z,94721.03
2022-11-06T07:59:49.818Z,94709.31
2022-11-06T08:02:17.704Z,94715.81
2022-11-06T08:04:44.654Z,94707.13
2022-11-06T08:07:11.226Z,94718.72
2022-11-06T08:09:37.864Z,94727.66
2022-11-06T08:12:04.930Z,94704.00
2022-11-06T08:14:31.645Z,94730.56
2022-11-06T08:16:58.657Z,94737.47
2022-11-06T08:19:26.110Z,94737.78
2022-11-06T08:21:53.174Z,94730.31
2022-11-06T08:24:22.052Z,94734.88
2022-11-06T08:26:49.168Z,94748.34
2022-11-06T08:29:16.263Z,94740.78
2022-11-06T08:31:43.279Z,94753.59
2022-11-06T08:34:10.589Z,94736.09
2022-11-06T08:37:27.116Z,94755.06
2022-11-06T08:39:53.941Z,94731.88
2022-11-06T08:42:21.001Z,94733.47
2022-11-06T08:44:48.184Z,94750.44
2022-11-06T08:47:15.108Z,94751.31
2022-11-06T08:49:41.969Z,94768.25
2022-11-06T08:52:08.862Z,94775.13
2022-11-06T08:54:38.528Z,94761.72
2022-11-06T08:57:05.416Z,94766.13
2022-11-06T08:59:33.281Z,94764.38
2022-11-06T09:02:01.173Z,94774.94
2022-11-06T09:04:28.088Z,94778.97
2022-11-06T09:06:56.946Z,94754.44
2022-11-06T09:09:24.266Z,94776.25
2022-11-06T09:11:51.095Z,94785.53
2022-11-06T09:14:18.339Z,94775.00
2022-11-06T09:16:45.105Z,94774.03
2022-11-06T09:19:12.022Z,94779.22
2022-11-06T09:21:40.902Z,94784.75
2022-11-06T09:24:07.729Z,94779.38
2022-11-06T09:26:35.421Z,94784.09
2022-11-06T09:29:02.265Z,94767.09
2022-11-06T09:31:29.103Z,94786.13
2022-11-06T09:33:56.211Z,94798.13
2022-11-06T09:36:23.445Z,94791.56
2022-11-06T09:38:50.311Z,94801.06
2022-11-06T09:41:37.935Z,94797.88
2022-11-06T09:44:41.175Z,94803.28
2022-11-06T09:47:19.360Z,94793.16
2022-11-06T09:49:52.030Z,94781.75
2022-11-06T09:52:44.870Z,94790.78
2022-11-06T09:55:25.453Z,94787.44
2022-11-06T09:58:00.090Z,94787.28
2022-11-06T10:00:29.791Z,94795.28
2022-11-06T10:03:08.752Z,94796.44
2022-11-06T10:05:38.412Z,94754.56
2022-11-06T10:08:20.290Z,94780.47
2022-11-06T10:11:24.434Z,94794.78
2022-11-06T10:14:20.810Z,94788.03
2022-11-06T10:17:01.638Z,94773.16
2022-11-06T10:19:45.712Z,94793.94
2022-11-06T10:22:17.979Z,94792.69
2022-11-06T10:24:46.557Z,94794.75
2022-11-06T10:27:20.025Z,94792.59
2022-11-06T10:30:04.714Z,94792.22
2022-11-06T10:32:57.918Z,94796.00
2022-11-06T10:35:47.058Z,94794.00
2022-11-06T10:38:15.553Z,94790.28
2022-11-06T10:40:46.478Z,94789.19
2022-11-06T10:43:19.018Z,94795.06
2022-11-06T10:45:50.677Z,94794.13
2022-11-06T10:48:27.387Z,94801.88
2022-11-06T10:51:21.033Z,94787.50
2022-11-06T10:54:00.877Z,94777.00
2022-11-06T10:56:59.615Z,94790.53
2022-11-06T10:59:26.217Z,94784.03
2022-11-06T11:01:54.006Z,94791.50
2022-11-06T11:04:20.901Z,94785.88
2022-11-06T11:06:47.655Z,94790.53
2022-11-06T11:09:34.459Z,94799.72
2022-11-06T11:12:01.347Z,94799.81
2022-11-06T11:14:30.530Z,94802.16
2022-11-06T11:17:01.976Z,94793.19
2022-11-06T11:19:41.601Z,94799.41
2022-11-06T11:22:21.626Z,94793.34
2022-11-06T11:25:06.076Z,94767.78
2022-11-06T11:27:38.329Z,94784.53
2022-11-06T11:30:06.333Z,94787.19
2022-11-06T11:32:33.640Z,94773.69
2022-11-06T11:35:01.301Z,94780.91
2022-11-06T11:37:31.065Z,94773.50
2022-11-06T11:40:23.566Z,94785.06
2022-11-06T11:42:50.163Z,94780.47
2022-11-06T11:45:19.498Z,94787.50
2022-11-06T11:47:48.658Z,94767.13
2022-11-06T11:50:20.292Z,94772.41
2022-11-06T11:52:49.417Z,94768.00
2022-11-06T11:55:18.587Z,94768.47
2022-11-06T11:57:48.967Z,94780.97
2022-11-06T12:00:20.913Z,94758.63
2022-11-06T12:02:52.087Z,94780.78
2022-11-06T12:05:24.198Z,94782.38
2022-11-06T12:07:56.366Z,94772.34
2022-11-06T12:10:34.999Z,94768.84
2022-11-06T12:13:05.271Z,94757.56
2022-11-06T12:15:41.027Z,94770.34
2022-11-06T12:18:15.796Z,94765.44
2022-11-06T12:21:04.297Z,94747.94
2022-11-06T12:23:53.809Z,94763.00
2022-11-06T12:26:25.393Z,94768.81
2022-11-06T12:29:02.010Z,94773.75
2022-11-06T12:31:41.559Z,94769.03
2022-11-06T12:34:17.851Z,94784.75
2022-11-06T12:36:59.095Z,94780.94
2022-11-06T12:39:33.554Z,94766.41
2022-11-06T12:42:04.465Z,94739.31
2022-11-06T12:44:31.179Z,94766.31
2022-11-06T12:47:05.408Z,94769.91
2022-11-06T12:49:44.574Z,94767.81
2022-11-06T12:52:39.394Z,94769.06
2022-11-06T12:55:32.041Z,94780.03
2022-11-06T12:58:20.265Z,94784.75
2022-11-06T13:01:08.302Z,94789.31
2022-11-06T13:03:44.013Z,94791.19
2022-11-06T13:06:24.518Z,94771.41
2022-11-06T13:09:06.097Z,94775.72
2022-11-06T13:12:17.602Z,94791.34
2022-11-06T13:14:47.589Z,94789.63
2022-11-06T13:17:26.731Z,94788.34
2022-11-06T13:20:03.758Z,94784.75
2022-11-06T13:22:42.561Z,94792.25
2022-11-06T13:25:45.811Z,94797.50
2022-11-06T13:28:26.805Z,94795.91
2022-11-06T13:30:54.241Z,94802.34
2022-11-06T13:33:28.656Z,94812.25
2022-11-06T13:35:55.949Z,94806.03
2022-11-06T13:38:28.637Z,94805.47
2022-11-06T13:41:11.700Z,94815.34
2022-11-06T13:43:54.990Z,94815.34
2022-11-06T13:46:52.865Z,94811.84
2022-11-06T13:49:43.491Z,94811.84
2022-11-06T13:52:09.969Z,94816.06
2022-11-06T13:55:03.359Z,94808.03
2022-11-06T13:58:01.031Z,94805.09
2022-11-06T14:00:45.818Z,94816.06
2022-11-06T14:03:37.525Z,94820.34
2022-11-06T14:06:25.130Z,94804.41
2022-11-06T14:08:56.730Z,94808.19
2022-11-06T14:11:33.106Z,94811.44
2022-11-06T14:14:06.211Z,94808.94
2022-11-06T14:16:41.120Z,94812.94
2022-11-06T14:19:23.376Z,94812.13
2022-11-06T14:21:56.605Z,94823.41
2022-11-06T14:24:32.422Z,94811.38
2022-11-06T14:27:06.611Z,94820.81
2022-11-06T14:29:33.152Z,94817.06
2022-11-06T14:32:06.512Z,94833.22
2022-11-06T14:34:34.467Z,94831.25
2022-11-06T14:37:19.741Z,94841.97
2022-11-06T14:39:55.518Z,94833.75
2022-11-06T14:42:33.820Z,94831.50
2022-11-06T14:45:10.080Z,94835.34
2022-11-06T14:47:51.372Z,94845.41
2022-11-06T14:50:38.198Z,94840.41
2022-11-06T14:53:24.341Z,94829.06
2022-11-06T14:55:59.168Z,94844.97
2022-11-06T14:58:31.307Z,94855.25
2022-11-06T15:01:00.899Z,94855.50
2022-11-06T15:03:37.570Z,94845.72
2022-11-06T15:06:34.685Z,94865.31
2022-11-06T15:09:16.095Z,94863.13
2022-11-06T15:11:47.646Z,94855.19
2022-11-06T15:14:17.538Z,94855.72
2022-11-06T15:16:55.896Z,94866.69
2022-11-06T15:19:28.287Z,94866.44
2022-11-06T15:22:04.481Z,94867.50
2022-11-06T15:24:56.913Z,94867.75
2022-11-06T15:27:42.968Z,94869.47
2022-11-06T15:30:16.693Z,94868.69
2022-11-06T15:32:46.020Z,94875.41
2022-11-06T15:35:27.711Z,94865.97
2022-11-06T15:38:17.073Z,94868.31
2022-11-06T15:40:44.586Z,94877.56
2022-11-06T15:43:24.256Z,94878.59
2022-11-06T15:46:12.709Z,94878.88
2022-11-06T15:48:39.376Z,94887.09
2022-11-06T15:51:28.676Z,94886.84
2022-11-06T15:53:55.753Z,94885.13
2022-11-06T15:56:31.639Z,94893.34
2022-11-06T15:59:24.378Z,94893.09
2022-11-06T16:01:51.167Z,94903.13
2022-11-06T16:04:25.732Z,94902.19
2022-11-06T16:06:55.120Z,94907.47
2022-11-06T16:09:25.281Z,94916.44
2022-11-06T16:11:53.090Z,94913.50
2022-11-06T16:14:20.702Z,94921.72
2022-11-06T16:16:51.348Z,94918.28
2022-11-06T16:19:20.508Z,94927.75
2022-11-06T16:22:04.313Z,94931.91
2022-11-06T16:24:40.136Z,94920.72
2022-11-06T16:27:07.324Z,94939.75
2022-11-06T16:29:34.809Z,94942.84
2022-11-06T16:32:18.243Z,94943.06
2022-11-06T16:34:47.025Z,94925.19
2022-11-06T16:37:16.377Z,94952.25
2022-11-06T16:39:52.844Z,94944.50
2022-11-06T16:42:22.637Z,94959.75
2022-11-06T16:45:00.337Z,94951.34
2022-11-06T16:47:27.504Z,94956.53
2022-11-06T16:49:59.752Z,94962.50
2022-11-06T16:52:39.426Z,94951.81
2022-11-06T16:55:34.410Z,94958.25
2022-11-06T16:58:03.289Z,94975.00
2022-11-06T17:00:31.875Z,94970.19
2022-11-06T17:03:04.610Z,94973.75
2022-11-06T17:05:50.257Z,94967.38
2022-11-06T17:08:40.259Z,94969.63
2022-11-06T17:11:12.799Z,94974.25
2022-11-06T17:13:45.347Z,94968.41
2022-11-06T17:16:15.654Z,94973.81
2022-11-06T17:18:43.053Z,94983.69
2022-11-06T17:21:14.220Z,94989.56
2022-11-06T17:23:41.588Z,94998.41
2022-11-06T17:26:13.304Z,94977.59
2022-11-06T17:28:40.269Z,94986.34
2022-11-06T17:31:11.116Z,94989.06
2022-11-06T17:33:37.978Z,94988.22
2022-11-06T17:36:05.512Z,94978.72
2022-11-06T17:38:32.167Z,94983.69
2022-11-06T17:40:58.777Z,95001.59
2022-11-06T17:43:25.641Z,94984.34
2022-11-06T17:45:52.491Z,94994.72
2022-11-06T17:48:19.187Z,94988.88
2022-11-06T17:51:04.600Z,94989.91
2022-11-06T17:53:31.339Z,94997.34
2022-11-06T17:55:58.138Z,94992.66
2022-11-06T17:58:25.069Z,94998.78
2022-11-06T18:00:51.852Z,95004.63
2022-11-06T18:03:20.611Z,95006.50
2022-11-06T18:05:47.518Z,94997.19
2022-11-06T18:08:15.156Z,95009.06
2022-11-06T18:10:42.477Z,94994.06
2022-11-06T18:13:09.391Z,95009.22
2022-11-06T18:15:37.506Z,95006.50
2022-11-06T18:18:04.504Z,95006.97
2022-11-06T18:20:31.198Z,95008.09
2022-11-06T18:22:57.861Z,95017.06
2022-11-06T18:25:24.613Z,94997.53
2022-11-06T18:27:51.146Z,95011.88
2022-11-06T18:30:17.867Z,95015.84
2022-11-06T18:32:44.725Z,95015.56
2022-11-06T18:35:11.742Z,95029.41
2022-11-06T18:37:38.813Z,95019.31
2022-11-06T18:40:05.812Z,95029.22
2022-11-06T18:42:32.605Z,95039.78
2022-11-06T18:44:59.212Z,95024.13
2022-11-06T18:47:25.897Z,95015.94
2022-11-06T18:49:52.557Z,95020.34
2022-11-06T18:52:38.084Z,95022.22
2022-11-06T18:55:06.333Z,95022.06
2022-11-06T18:57:33.060Z,95019.59
2022-11-06T18:59:59.867Z,95017.44
2022-11-06T19:02:26.650Z,95026.19
2022-11-06T19:04:53.923Z,95037.03
2022-11-06T19:07:20.596Z,95045.13
2022-11-06T19:09:47.470Z,95038.34
2022-11-06T19:12:14.055Z,95040.16
2022-11-06T19:14:40.623Z,95035.88
2022-11-06T19:17:07.455Z,95040.69
2022-11-06T19:19:34.167Z,95034.13
2022-11-06T19:22:00.991Z,95048.31
2022-11-06T19:24:27.576Z,95051.06
2022-11-06T19:26:54.577Z,95051.69
2022-11-06T19:29:21.369Z,95045.56
2022-11-06T19:31:48.064Z,95046.38
2022-11-06T19:34:15.202Z,95060.34
2022-11-06T19:36:41.779Z,95038.00
2022-11-06T19:39:08.562Z,95067.16
2022-11-06T19:41:35.265Z,95064.53
2022-11-06T19:44:01.839Z,95045.59
2022-11-06T19:46:33.863Z,95061.81
2022-11-06T19:49:06.527Z,95047.59
2022-11-06T19:51:34.089Z,95067.09
2022-11-06T19:54:01.599Z,95064.94
2022-11-06T19:56:28.339Z,95059.06
2022-11-06T19:58:54.881Z,95046.66
2022-11-06T20:01:22.015Z,95076.06
2022-11-06T20:03:48.759Z,95068.97
2022-11-06T20:06:16.974Z,95072.16
2022-11-06T20:08:47.447Z,95075.13
2022-11-06T20:11:15.377Z,95081.28
2022-11-06T20:13:43.479Z,95080.06
2022-11-06T20:16:13.065Z,95089.63
2022-11-06T20:18:39.889Z,95100.44
2022-11-06T20:21:09.084Z,95102.50
2022-11-06T20:23:36.512Z,95105.81
2022-11-06T20:26:04.837Z,95111.88
2022-11-06T20:28:32.290Z,95112.25
2022-11-06T20:30:59.757Z,95119.66
2022-11-06T20:33:26.619Z,95098.56
2022-11-06T20:35:53.360Z,95109.66
2022-11-06T20:38:20.112Z,95115.38
2022-11-06T20:40:46.655Z,95126.91
2022-11-06T20:43:14.045Z,95106.72
2022-11-06T20:45:41.051Z,95121.81
2022-11-06T20:48:09.352Z,95100.97
2022-11-06T20:50:36.032Z,95111.25
2022-11-06T20:53:02.829Z,95129.22
2022-11-06T20:55:29.515Z,95111.31
2022-11-06T20:57:56.589Z,95108.25
2022-11-06T21:00:23.310Z,95129.75
2022-11-06T21:02:50.130Z,95104.47
2022-11-06T21:05:17.523Z,95137.31
2022-11-06T21:07:44.198Z,95127.03
2022-11-06T21:10:12.335Z,95123.06
2022-11-06T21:12:39.414Z,95141.09
2022-11-06T21:15:06.904Z,95133.50
2022-11-06T21:17:34.806Z,95144.81
2022-11-06T21:20:01.814Z,95145.50
2022-11-06T21:22:28.513Z,95139.47
2022-11-06T21:24:55.753Z,95144.75
2022-11-06T21:27:22.519Z,95148.72
2022-11-06T21:29:49.078Z,95149.34
2022-11-06T21:32:15.746Z,95136.22
2022-11-06T21:34:42.628Z,95152.63
2022-11-06T21:37:09.535Z,95140.72
2022-11-06T21:39:36.833Z,95146.63
2022-11-06T21:42:05.008Z,95146.25
2022-11-06T21:44:32.282Z,95142.09
2022-11-06T21:46:59.017Z,95134.13
2022-11-06T21:49:25.759Z,95139.94
2022-11-06T21:51:52.820Z,95135.91
2022-11-06T21:54:37.927Z,95116.59
2022-11-06T21:57:04.673Z,95140.97
2022-11-06T21:59:31.316Z,95149.03
2022-11-06T22:01:58.165Z,95132.41
2022-11-06T22:04:25.063Z,95147.34
2022-11-06T22:06:52.627Z,95150.38
2022-11-06T22:09:24.923Z,95154.59
2022-11-06T22:11:52.134Z,95165.50
2022-11-06T22:14:18.749Z,95158.22
2022-11-06T22:16:46.876Z,95156.13
2022-11-06T22:19:15.015Z,95143.53
2022-11-06T22:21:41.789Z,95156.53
2022-11-06T22:24:10.543Z,95162.16
2022-11-06T22:26:37.908Z,95165.34
2022-11-06T22:29:08.552Z,95164.91
2022-11-06T22:31:35.655Z,95173.84
2022-11-06T22:34:02.960Z,95156.75
2022-11-06T22:36:29.701Z,95173.28
2022-11-06T22:38:57.712Z,95167.50
2022-11-06T22:41:25.097Z,95167.50
2022-11-06T22:43:53.218Z,95163.56
2022-11-06T22:46:23.503Z,95166.88
2022-11-06T22:48:52.122Z,95175.22
2022-11-06T22:51:22.172Z,95188.69
2022-11-06T22:53:50.468Z,95183.84
2022-11-06T22:56:17.754Z,95171.81
2022-11-06T22:58:44.949Z,95172.50
2022-11-06T23:01:11.995Z,95185.66
2022-11-06T23:03:39.723Z,95184.66
2022-11-06T23:06:09.375Z,95193.31
2022-11-06T23:08:40.628Z,95193.44
2022-11-06T23:11:14.905Z,95192.94
2022-11-06T23:13:41.788Z,95194.31
2022-11-06T23:16:12.301Z,95180.06
2022-11-06T23:18:39.648Z,95182.78
2022-11-06T23:21:14.452Z,95187.16
2022-11-06T23:23:42.523Z,95190.03
2022-11-06T23:26:17.019Z,95189.22
2022-11-06T23:28:45.279Z,95192.69
2022-11-06T23:31:12.982Z,95196.47
2022-11-06T23:33:40.319Z,95200.41
2022-11-06T23:36:08.300Z,95196.47
2022-11-06T23:38:35.310Z,95184.19
2022-11-06T23:41:27.079Z,95200.84
2022-11-06T23:43:54.448Z,95195.69
2022-11-06T23:46:23.908Z,95194.91
2022-11-06T23:48:50.675Z,95201.72
2022-11-06T23:51:17.488Z,95205.34
2022-11-06T23:53:44.928Z,95198.47
2022-11-06T23:56:12.860Z,95193.88
2022-11-06T23:58:40.650Z,95202.47
